Time;durP1;ratioP1;P1;durP2;ratioP2;P2;SDS_P1;SDS_P2;PMS_P1;PMS_P2;Temp;Humidity;BMP_temperature;BMP_pressure;BME280_temperature;BME280_humidity;BME280_pressure;Samples;Min_cycle;Max_cycle;Signal;HPM_P1;HPM_P2
2021/05/21 00:00:16;;;;;;;3.93;2.50;;;;;;;10.28;100.00;96226.31;5037620;28;20209;-73
2021/05/21 00:02:42;;;;;;;13.10;3.93;;;;;;;10.28;100.00;96214.97;5037418;28;20595;-73
2021/05/21 00:05:10;;;;;;;5.00;2.30;;;;;;;10.20;100.00;96223.72;5036884;28;20201;-73
2021/05/21 00:07:37;;;;;;;6.03;2.73;;;;;;;10.23;100.00;96202.31;5038392;28;20189;-73
2021/05/21 00:10:04;;;;;;;2.87;2.27;;;;;;;10.16;100.00;96227.72;5037591;28;20205;-73
2021/05/21 00:12:30;;;;;;;3.70;2.50;;;;;;;10.19;100.00;96214.19;5037330;28;20232;-73
2021/05/21 00:14:56;;;;;;;3.80;2.63;;;;;;;10.23;100.00;96204.94;5037419;28;20208;-73
2021/05/21 00:17:23;;;;;;;5.10;2.60;;;;;;;10.21;100.00;96198.22;5036845;28;20225;-73
2021/05/21 00:19:49;;;;;;;5.47;2.87;;;;;;;10.12;100.00;96194.00;5037520;28;20794;-73
2021/05/21 00:22:15;;;;;;;3.60;2.47;;;;;;;10.06;100.00;96192.06;5037087;28;20222;-73
2021/05/21 00:24:41;;;;;;;3.43;2.50;;;;;;;10.09;100.00;96191.72;5037604;28;20208;-73
2021/05/21 00:27:07;;;;;;;4.03;2.47;;;;;;;10.07;100.00;96191.91;5036357;28;20204;-73
2021/05/21 00:29:34;;;;;;;4.70;2.30;;;;;;;10.10;100.00;96188.09;5036421;28;20210;-73
2021/05/21 00:32:00;;;;;;;5.90;2.80;;;;;;;10.00;100.00;96179.59;5037203;28;20232;-73
2021/05/21 00:34:27;;;;;;;4.43;2.37;;;;;;;9.94;100.00;96180.25;5036721;28;20201;-72
2021/05/21 00:36:53;;;;;;;4.93;2.83;;;;;;;9.95;100.00;96182.75;5036333;28;20606;-73
2021/05/21 00:39:19;;;;;;;3.40;2.73;;;;;;;9.97;100.00;96169.44;5037067;28;20278;-73
2021/05/21 00:41:45;;;;;;;3.23;2.60;;;;;;;9.96;100.00;96176.50;5036731;28;20302;-73
2021/05/21 00:44:12;;;;;;;3.27;2.63;;;;;;;10.03;100.00;96169.56;5036517;28;20684;-73
2021/05/21 00:46:38;;;;;;;3.37;2.50;;;;;;;10.06;100.00;96174.47;5036227;28;20228;-73
2021/05/21 00:49:04;;;;;;;3.40;2.60;;;;;;;9.97;100.00;96174.69;5037131;28;20205;-73
2021/05/21 00:51:30;;;;;;;3.83;2.10;;;;;;;10.01;98.75;96163.63;5036470;28;20306;-73
2021/05/21 00:53:58;;;;;;;3.00;2.37;;;;;;;10.03;99.53;96153.75;5036950;28;20203;-73
2021/05/21 00:56:25;;;;;;;3.23;2.27;;;;;;;10.04;100.00;96144.88;5036287;28;20229;-73
2021/05/21 00:58:51;;;;;;;2.90;2.17;;;;;;;10.05;100.00;96154.38;5036337;28;20236;-73
2021/05/21 01:01:17;;;;;;;3.20;2.27;;;;;;;10.00;100.00;96154.09;5036442;28;20741;-73
2021/05/21 01:03:43;;;;;;;2.40;2.17;;;;;;;10.05;100.00;96151.75;5036935;28;20286;-73
2021/05/21 01:06:10;;;;;;;4.37;2.40;;;;;;;9.96;100.00;96144.09;5035601;28;20205;-74
2021/05/21 01:08:38;;;;;;;2.77;2.40;;;;;;;9.95;100.00;96155.59;5036631;28;20205;-73
2021/05/21 01:11:05;;;;;;;3.20;2.37;;;;;;;9.92;100.00;96150.69;5036979;28;20279;-73
2021/05/21 01:13:32;;;;;;;4.33;2.40;;;;;;;9.93;100.00;96145.25;5036518;28;20201;-73
2021/05/21 01:15:58;;;;;;;3.20;1.97;;;;;;;9.93;98.77;96142.59;5035222;28;20259;-73
2021/05/21 01:18:24;;;;;;;3.83;1.83;;;;;;;10.02;98.82;96135.50;5036793;28;20594;-73
2021/05/21 01:20:51;;;;;;;3.23;2.30;;;;;;;10.03;100.00;96137.13;5036979;28;20204;-73
2021/05/21 01:23:17;;;;;;;3.47;2.40;;;;;;;9.97;100.00;96130.75;5036123;28;20216;-73
2021/05/21 01:25:44;;;;;;;3.17;2.27;;;;;;;9.94;100.00;96127.63;5035629;28;20205;-73
2021/05/21 01:28:12;;;;;;;2.50;2.20;;;;;;;9.89;100.00;96117.63;5036143;28;20291;-73
2021/05/21 01:30:38;;;;;;;3.20;2.50;;;;;;;9.82;100.00;96114.06;5036367;28;20697;-73
2021/05/21 01:33:06;;;;;;;4.80;2.10;;;;;;;9.85;100.00;96105.00;5036573;28;20201;-73
2021/05/21 01:35:32;;;;;;;2.80;2.00;;;;;;;9.87;100.00;96116.16;5035844;28;20201;-73
2021/05/21 01:37:59;;;;;;;5.93;2.50;;;;;;;9.81;100.00;96111.59;5036132;28;20217;-73
2021/05/21 01:40:25;;;;;;;3.20;2.03;;;;;;;9.80;100.00;96109.97;5038889;28;20200;-73
2021/05/21 01:42:52;;;;;;;3.60;2.37;;;;;;;9.73;100.00;96104.56;5040460;28;20221;-73
2021/05/21 01:45:18;;;;;;;2.70;2.10;;;;;;;9.72;100.00;96102.13;5039867;28;20250;-73
2021/05/21 01:47:47;;;;;;;4.10;2.30;;;;;;;9.73;100.00;96098.50;5040220;28;20213;-73
2021/05/21 01:50:13;;;;;;;2.93;2.40;;;;;;;9.73;100.00;96094.06;5040203;28;20201;-73
2021/05/21 01:52:39;;;;;;;2.53;2.27;;;;;;;9.73;100.00;96099.31;5037382;28;20278;-73
2021/05/21 01:55:07;;;;;;;3.37;2.20;;;;;;;9.75;100.00;96096.53;5039206;28;20227;-73
2021/05/21 01:57:35;;;;;;;3.63;2.10;;;;;;;9.72;100.00;96096.84;5039897;28;20221;-73
2021/05/21 02:00:01;;;;;;;3.53;2.30;;;;;;;9.75;100.00;96096.53;5039978;28;20375;-73
2021/05/21 02:02:27;;;;;;;4.27;2.40;;;;;;;9.73;100.00;96088.78;5039903;28;20221;-73
2021/05/21 02:04:53;;;;;;;2.87;2.43;;;;;;;9.65;100.00;96088.03;5040011;28;20203;-73
2021/05/21 02:07:19;;;;;;;3.63;2.30;;;;;;;9.67;100.00;96079.97;5039637;28;20675;-73
2021/05/21 02:09:53;;;;;;;4.70;2.13;;;;;;;9.67;100.00;96086.03;5039266;28;20205;-73
2021/05/21 02:12:20;;;;;;;2.87;2.23;;;;;;;9.61;100.00;96088.56;5039772;28;20229;-73
2021/05/21 02:14:46;;;;;;;4.60;1.97;;;;;;;9.61;100.00;96088.56;5039831;28;20575;-73
2021/05/21 02:17:12;;;;;;;3.73;2.43;;;;;;;9.62;100.00;96082.31;5038813;28;20240;-73
2021/05/21 02:19:38;;;;;;;3.30;2.30;;;;;;;9.53;100.00;96072.84;5039643;28;20308;-73
2021/05/21 02:22:06;;;;;;;3.47;2.23;;;;;;;9.50;100.00;96079.25;5039385;28;20769;-73
2021/05/21 02:24:32;;;;;;;3.60;1.90;;;;;;;9.56;100.00;96073.31;5036413;28;20200;-73
2021/05/21 02:26:58;;;;;;;1.93;1.73;;;;;;;9.58;100.00;96070.50;5039234;28;20194;-73
2021/05/21 02:29:25;;;;;;;3.23;2.37;;;;;;;9.57;100.00;96060.97;5039807;28;20572;-73
2021/05/21 02:31:51;;;;;;;4.27;2.30;;;;;;;9.48;100.00;96062.00;5039039;28;20228;-73
2021/05/21 02:34:18;;;;;;;4.40;2.70;;;;;;;9.42;100.00;96053.00;5039263;28;20690;-73
2021/05/21 02:36:44;;;;;;;2.83;2.30;;;;;;;9.48;100.00;96051.50;5038738;28;20225;-73
2021/05/21 02:39:10;;;;;;;3.40;2.63;;;;;;;9.52;100.00;96050.97;5040196;28;20201;-73
2021/05/21 02:41:36;;;;;;;5.60;2.90;;;;;;;9.49;100.00;96055.75;5039304;28;20281;-73
2021/05/21 02:44:02;;;;;;;6.77;3.63;;;;;;;9.37;100.00;96047.47;5038763;28;20201;-73
2021/05/21 02:46:29;;;;;;;11.07;5.53;;;;;;;9.39;100.00;96052.53;5038924;28;20197;-73
2021/05/21 02:48:55;;;;;;;12.40;7.47;;;;;;;9.37;100.00;96044.03;5038970;28;20595;-73
2021/05/21 02:51:21;;;;;;;34.73;17.27;;;;;;;9.43;100.00;96041.50;5037788;28;20225;-73
2021/05/21 02:53:47;;;;;;;17.60;10.90;;;;;;;9.36;100.00;96040.56;5036793;28;20209;-73
2021/05/21 02:56:14;;;;;;;15.50;9.23;;;;;;;9.41;100.00;96032.97;5038104;28;20216;-73
2021/05/21 02:58:40;;;;;;;15.83;9.23;;;;;;;9.25;100.00;96029.63;5038990;28;20323;-73
2021/05/21 03:01:06;;;;;;;13.90;8.23;;;;;;;9.31;100.00;96023.69;5038658;28;20221;-73
2021/05/21 03:03:33;;;;;;;12.70;7.77;;;;;;;9.19;100.00;96036.41;5039125;28;20205;-73
2021/05/21 03:05:59;;;;;;;4.13;2.80;;;;;;;9.18;100.00;96026.06;5038054;28;20255;-73
2021/05/21 03:08:25;;;;;;;4.77;2.50;;;;;;;9.15;100.00;96032.47;5039041;28;20197;-73
2021/05/21 03:10:51;;;;;;;3.23;2.60;;;;;;;9.11;100.00;96025.09;5038676;28;20690;-73
2021/05/21 03:13:17;;;;;;;3.63;2.37;;;;;;;9.17;100.00;96019.16;5038407;28;20220;-73
2021/05/21 03:15:44;;;;;;;8.20;2.60;;;;;;;9.12;100.00;96014.41;5037734;28;20205;-73
2021/05/21 03:18:13;;;;;;;3.73;2.20;;;;;;;8.97;100.00;96015.31;5038680;28;20755;-73
2021/05/21 03:20:41;;;;;;;2.97;2.30;;;;;;;9.02;100.00;96015.63;5038597;28;20203;-73
2021/05/21 03:23:07;;;;;;;2.67;2.23;;;;;;;8.98;100.00;96022.22;5038320;28;20201;-73
2021/05/21 03:25:33;;;;;;;7.33;3.10;;;;;;;8.91;100.00;96016.03;5037896;28;20201;-73
2021/05/21 03:27:59;;;;;;;4.77;2.53;;;;;;;8.94;100.00;96014.88;5038538;28;20200;-73
2021/05/21 03:30:26;;;;;;;7.00;4.17;;;;;;;8.83;100.00;96008.16;5038600;28;20245;-73
2021/05/21 03:32:52;;;;;;;5.90;3.63;;;;;;;8.91;100.00;96016.03;5035415;28;20270;-73
2021/05/21 03:35:18;;;;;;;4.23;3.00;;;;;;;8.87;100.00;96009.50;5037592;28;20205;-73
2021/05/21 03:37:45;;;;;;;3.33;2.50;;;;;;;8.95;100.00;96005.97;5038199;28;20221;-73
2021/05/21 03:40:12;;;;;;;5.43;2.90;;;;;;;8.88;100.00;96010.28;5037770;28;20694;-73
2021/05/21 03:42:38;;;;;;;6.83;4.50;;;;;;;8.95;100.00;96000.72;5038230;28;20232;-73
2021/05/21 03:45:06;;;;;;;10.60;5.67;;;;;;;8.96;100.00;95995.31;5037522;28;20448;-73
2021/05/21 03:47:32;;;;;;;20.47;7.43;;;;;;;8.89;100.00;96011.94;5038082;28;20201;-73
2021/05/21 03:49:59;;;;;;;13.17;5.93;;;;;;;8.87;100.00;96009.50;5038031;28;21137;-75
2021/05/21 03:52:25;;;;;;;7.73;3.73;;;;;;;8.92;100.00;96012.38;5035408;28;20940;-73
2021/05/21 03:54:53;;;;;;;10.23;4.20;;;;;;;8.90;100.00;96011.75;5037578;28;20218;-73
2021/05/21 03:57:21;;;;;;;11.57;5.57;;;;;;;8.96;100.00;96004.97;5036728;28;20243;-73
2021/05/21 03:59:47;;;;;;;11.50;5.00;;;;;;;9.01;100.00;96006.09;5038395;28;20232;-73
2021/05/21 04:02:13;;;;;;;7.03;4.50;;;;;;;9.02;100.00;95997.22;5037421;28;20217;-73
2021/05/21 04:04:39;;;;;;;9.13;4.40;;;;;;;9.07;100.00;95996.72;5037589;28;20205;-73
2021/05/21 04:07:05;;;;;;;7.77;4.47;;;;;;;9.06;100.00;95998.50;5037091;28;20204;-73
2021/05/21 04:09:31;;;;;;;7.20;4.07;;;;;;;9.08;100.00;95999.97;5037597;28;20201;-72
2021/05/21 04:11:58;;;;;;;7.23;3.50;;;;;;;9.15;100.00;95994.84;5037105;28;21078;-73
2021/05/21 04:14:24;;;;;;;11.03;5.37;;;;;;;9.07;100.00;95991.47;5038026;28;20252;-73
2021/05/21 04:16:50;;;;;;;10.47;4.43;;;;;;;9.17;100.00;95982.34;5036608;28;20778;-73
2021/05/21 04:19:16;;;;;;;7.60;4.23;;;;;;;9.20;100.00;95979.38;5037227;28;20235;-73
2021/05/21 04:21:42;;;;;;;13.07;4.63;;;;;;;9.30;100.00;95974.69;5037346;28;20221;-73
2021/05/21 04:24:09;;;;;;;9.37;4.47;;;;;;;9.25;100.00;95979.66;5037565;28;20240;-73
2021/05/21 04:26:35;;;;;;;10.53;4.50;;;;;;;9.40;100.00;95988.44;5036654;28;20201;-73
2021/05/21 04:29:02;;;;;;;5.23;3.80;;;;;;;9.40;100.00;95983.19;5036526;28;20584;-73
2021/05/21 04:31:28;;;;;;;7.03;3.77;;;;;;;9.50;100.00;95986.41;5036673;28;20787;-73
2021/05/21 04:33:54;;;;;;;3.83;2.80;;;;;;;9.59;100.00;95983.50;5037137;28;20255;-73
2021/05/21 04:36:21;;;;;;;4.30;2.77;;;;;;;9.50;100.00;95992.47;5036274;28;20205;-73
2021/05/21 04:38:47;;;;;;;5.20;2.50;;;;;;;9.59;100.00;95986.16;5037120;28;20204;-73
2021/05/21 04:41:13;;;;;;;6.20;2.67;;;;;;;9.76;100.00;95987.63;5037107;28;20224;-73
2021/05/21 04:43:39;;;;;;;5.27;2.50;;;;;;;9.91;100.00;95986.66;5037133;28;20585;-73
2021/05/21 04:46:06;;;;;;;5.50;2.70;;;;;;;9.87;100.00;95989.84;5036122;28;20209;-73
2021/05/21 04:48:33;;;;;;;3.90;2.40;;;;;;;10.01;100.00;95979.38;5036980;28;20284;-73
2021/05/21 04:50:59;;;;;;;6.53;2.87;;;;;;;10.11;100.00;95982.56;5036551;28;20227;-73
2021/05/21 04:53:25;;;;;;;7.23;3.10;;;;;;;10.22;100.00;95978.66;5034184;28;20205;-73
2021/05/21 04:55:51;;;;;;;5.43;3.57;;;;;;;10.31;100.00;95972.31;5036515;28;20201;-73
2021/05/21 04:58:18;;;;;;;7.53;3.40;;;;;;;10.42;100.00;95959.50;5036398;28;20224;-73
2021/05/21 05:00:44;;;;;;;4.37;2.97;;;;;;;10.45;100.00;95959.13;5036139;28;21147;-73
2021/05/21 05:03:17;;;;;;;3.03;2.20;;;;;;;10.64;98.88;95963.84;5037417;28;20201;-73
2021/05/21 05:05:43;;;;;;;5.17;2.63;;;;;;;10.61;100.00;95953.69;5035985;28;20204;-73
2021/05/21 05:08:10;;;;;;;8.30;2.50;;;;;;;10.75;99.64;95958.09;5036361;28;20197;-73
2021/05/21 05:10:36;;;;;;;3.20;2.10;;;;;;;10.72;97.75;95954.03;5036210;28;20236;-73
2021/05/21 05:13:02;;;;;;;4.57;2.20;;;;;;;10.71;97.60;95954.22;5036642;28;20789;-73
2021/05/21 05:15:32;;;;;;;4.37;1.90;;;;;;;10.75;97.35;95950.19;5036451;28;20205;-73
2021/05/21 05:17:58;;;;;;;2.87;2.00;;;;;;;10.78;96.00;95944.56;5036166;28;20713;-73
2021/05/21 05:20:25;;;;;;;6.03;2.37;;;;;;;10.90;97.95;95935.97;5036135;28;20201;-73
2021/05/21 05:22:52;;;;;;;4.23;2.80;;;;;;;11.02;99.59;95932.69;5037310;28;20227;-72
2021/05/21 05:25:18;;;;;;;5.73;2.10;;;;;;;11.10;94.37;95940.47;5035486;28;20201;-73
2021/05/21 05:27:45;;;;;;;5.20;1.83;;;;;;;11.13;93.06;95931.38;5036621;28;20196;-73
2021/05/21 05:30:11;;;;;;;4.90;1.83;;;;;;;11.15;95.90;95924.91;5036530;28;20208;-72
2021/05/21 05:32:37;;;;;;;5.93;2.53;;;;;;;11.27;92.48;95920.75;5035937;28;20220;-73
2021/05/21 05:35:05;;;;;;;16.33;5.00;;;;;;;11.42;91.03;95907.47;5035694;28;20200;-73
2021/05/21 05:37:32;;;;;;;16.07;5.77;;;;;;;11.49;92.35;95911.81;5036134;28;20221;-73
2021/05/21 05:39:58;;;;;;;10.67;4.67;;;;;;;11.52;92.00;95908.84;5035646;28;21111;-73
2021/05/21 05:42:24;;;;;;;13.93;3.80;;;;;;;11.62;91.88;95902.22;5035908;28;20224;-73
2021/05/21 05:44:50;;;;;;;11.10;3.60;;;;;;;11.65;89.21;95908.94;5036428;28;20284;-73
2021/05/21 05:47:16;;;;;;;6.57;2.57;;;;;;;11.65;89.14;95901.03;5035561;28;20235;-72
2021/05/21 05:49:42;;;;;;;3.95;2.03;;;;;;;11.61;91.24;95897.16;5036187;28;20231;-73
2021/05/21 05:52:09;;;;;;;5.60;2.17;;;;;;;11.73;89.16;95891.13;5033279;28;20224;-73
2021/05/21 05:54:36;;;;;;;2.70;2.10;;;;;;;11.81;90.72;95890.16;5036438;28;20201;-73
2021/05/21 05:57:01;;;;;;;8.37;2.10;;;;;;;11.86;87.59;95885.13;5035226;28;20225;-73
2021/05/21 05:59:28;;;;;;;3.60;2.03;;;;;;;11.90;88.91;95876.66;5036334;28;20212;-73
2021/05/21 06:01:54;;;;;;;2.70;1.70;;;;;;;11.81;87.70;95882.25;5036222;28;20698;-73
2021/05/21 06:04:20;;;;;;;3.87;1.70;;;;;;;11.82;88.63;95879.41;5035566;28;20202;-73
2021/05/21 06:06:47;;;;;;;3.58;1.40;;;;;;;11.95;88.30;95884.81;5035624;28;20275;-73
2021/05/21 06:09:13;;;;;;;2.00;1.40;;;;;;;12.08;86.28;95884.03;5036191;28;20255;-73
2021/05/21 06:11:39;;;;;;;6.20;1.48;;;;;;;12.20;86.25;95886.75;5035438;28;20581;-73
2021/05/21 06:14:06;;;;;;;3.33;1.98;;;;;;;12.35;87.62;95894.56;5036522;28;20209;-73
2021/05/21 06:16:32;;;;;;;4.28;1.58;;;;;;;12.37;86.31;95887.25;5035200;28;20205;-73
2021/05/21 06:18:58;;;;;;;4.45;2.08;;;;;;;12.59;88.48;95884.31;5035349;28;20220;-74
2021/05/21 06:21:24;;;;;;;1.75;1.13;;;;;;;12.72;83.97;95870.34;5036212;28;20217;-73
2021/05/21 06:23:50;;;;;;;4.75;1.52;;;;;;;12.84;83.31;95882.75;5036323;28;20255;-73
2021/05/21 06:26:28;;;;;;;3.10;1.70;;;;;;;12.81;82.99;95875.22;5035452;28;20694;-73
2021/05/21 06:28:56;;;;;;;3.17;1.70;;;;;;;12.81;82.52;95867.31;5039530;28;20201;-72
2021/05/21 06:31:22;;;;;;;5.55;1.60;;;;;;;12.73;81.31;95864.00;5039796;28;20217;-73
2021/05/21 06:33:49;;;;;;;6.10;1.70;;;;;;;12.83;83.65;95860.00;5038949;28;20209;-73
2021/05/21 06:36:15;;;;;;;3.40;1.20;;;;;;;12.88;83.01;95860.22;5038141;28;20213;-73
2021/05/21 06:38:42;;;;;;;4.70;1.35;;;;;;;12.86;80.46;95856.97;5038795;28;20225;-73
2021/05/21 06:41:08;;;;;;;5.45;2.45;;;;;;;13.00;82.38;95856.00;5038288;28;20225;-73
2021/05/21 06:43:35;;;;;;;4.07;1.60;;;;;;;13.11;82.07;95848.28;5039478;28;20212;-73
2021/05/21 06:46:03;;;;;;;6.53;2.20;;;;;;;13.16;80.84;95845.00;5038048;28;20262;-73
2021/05/21 06:48:31;;;;;;;7.78;2.53;;;;;;;13.20;81.10;95840.94;5039107;28;20220;-73
2021/05/21 06:50:57;;;;;;;7.97;2.70;;;;;;;13.18;81.97;95843.00;5039133;28;20722;-73
2021/05/21 06:53:23;;;;;;;7.93;2.03;;;;;;;13.34;81.71;95854.00;5035236;28;20577;-73
2021/05/21 06:55:50;;;;;;;7.90;2.35;;;;;;;13.34;84.95;95859.28;5038530;28;20201;-73
2021/05/21 06:58:18;;;;;;;3.38;1.55;;;;;;;13.39;83.29;95870.91;5038813;28;20239;-73
2021/05/21 07:00:44;;;;;;;1.58;1.15;;;;;;;13.33;83.14;95860.31;5038365;28;20205;-73
2021/05/21 07:03:11;;;;;;;3.25;1.40;;;;;;;13.37;84.14;95852.78;5038573;28;20205;-73
2021/05/21 07:05:38;;;;;;;2.40;1.27;;;;;;;13.35;83.96;95846.88;5038695;28;20263;-73
2021/05/21 07:08:05;;;;;;;5.15;1.30;;;;;;;13.37;84.29;95843.00;5038607;28;20647;-73
2021/05/21 07:10:31;;;;;;;2.70;1.25;;;;;;;13.51;85.47;95834.84;5039127;28;20319;-74
2021/05/21 07:13:06;;;;;;;2.60;1.38;;;;;;;13.61;85.34;95842.41;5038436;28;20707;-73
2021/05/21 07:15:32;;;;;;;2.05;1.20;;;;;;;13.73;82.73;95854.78;5038414;28;20205;-73
2021/05/21 07:17:58;;;;;;;3.25;1.10;;;;;;;13.82;79.03;95845.59;5038543;28;20307;-73
2021/05/21 07:20:25;;;;;;;1.48;1.20;;;;;;;13.87;80.40;95837.84;5037906;28;20334;-73
2021/05/21 07:22:51;;;;;;;2.30;1.00;;;;;;;13.88;79.49;95847.44;5038694;28;20595;-73
2021/05/21 07:25:17;;;;;;;2.75;1.40;;;;;;;13.95;79.96;95836.84;5037721;28;20201;-73
2021/05/21 07:27:43;;;;;;;1.58;1.30;;;;;;;13.98;78.43;95839.09;5037794;28;20209;-73
2021/05/21 07:30:10;;;;;;;2.00;1.27;;;;;;;13.98;78.10;95827.44;5038932;28;20578;-73
2021/05/21 07:32:36;;;;;;;3.05;1.60;;;;;;;14.15;79.33;95827.84;5038820;28;20225;-73
2021/05/21 07:35:02;;;;;;;2.65;1.40;;;;;;;14.37;78.73;95827.38;5037711;28;20224;-73
2021/05/21 07:37:29;;;;;;;2.60;1.20;;;;;;;14.52;75.38;95829.75;5037834;28;20237;-73
2021/05/21 07:39:55;;;;;;;1.98;1.23;;;;;;;14.56;75.76;95823.84;5038532;28;20263;-73
2021/05/21 07:42:22;;;;;;;1.30;1.10;;;;;;;14.59;75.38;95820.75;5037943;28;20257;-73
2021/05/21 07:44:48;;;;;;;3.03;0.93;;;;;;;14.62;75.97;95822.97;5038410;28;20201;-73
2021/05/21 07:47:14;;;;;;;2.10;1.08;;;;;;;14.77;76.44;95811.06;5037145;28;20266;-73
2021/05/21 07:49:40;;;;;;;2.15;1.13;;;;;;;14.98;75.78;95807.25;5038043;28;20236;-73
2021/05/21 07:52:07;;;;;;;4.18;1.30;;;;;;;15.04;75.48;95812.50;5035282;28;20327;-73
2021/05/21 07:54:34;;;;;;;2.20;1.02;;;;;;;15.06;75.05;95818.44;5038063;28;20675;-73
2021/05/21 07:56:59;;;;;;;1.58;1.13;;;;;;;15.04;73.89;95825.78;5037399;28;20233;-73
2021/05/21 07:59:25;;;;;;;3.30;0.98;;;;;;;15.01;73.96;95815.59;5037801;28;20754;-73
2021/05/21 08:01:51;;;;;;;1.65;1.00;;;;;;;15.04;73.41;95809.84;5037897;28;20331;-73
2021/05/21 08:04:17;;;;;;;3.90;1.30;;;;;;;15.02;72.70;95814.59;5036818;28;20205;-73
2021/05/21 08:06:43;;;;;;;1.83;0.90;;;;;;;15.07;74.84;95813.94;5036697;28;20675;-73
2021/05/21 08:09:10;;;;;;;2.50;1.08;;;;;;;15.17;74.36;95803.66;5037703;28;20205;-73
2021/05/21 08:11:37;;;;;;;2.17;0.80;;;;;;;15.24;72.08;95797.31;5036715;28;20225;-73
2021/05/21 08:14:03;;;;;;;3.72;1.17;;;;;;;15.32;72.72;95802.34;5037869;28;20205;-73
2021/05/21 08:16:30;;;;;;;3.15;0.82;;;;;;;15.33;71.69;95803.97;5036834;28;20198;-73
2021/05/21 08:18:56;;;;;;;1.23;0.90;;;;;;;15.33;72.05;95804.78;5036204;28;20503;-73
2021/05/21 08:21:22;;;;;;;1.88;1.00;;;;;;;15.14;70.32;95815.50;5037439;28;20240;-73
2021/05/21 08:23:48;;;;;;;1.33;0.80;;;;;;;15.17;70.14;95809.75;5038471;28;20205;-73
2021/05/21 08:26:14;;;;;;;3.60;1.23;;;;;;;15.00;70.71;95808.66;5037527;28;20209;-73
2021/05/21 08:28:42;;;;;;;1.77;0.75;;;;;;;15.06;71.18;95813.13;5038698;28;20212;-73
2021/05/21 08:31:08;;;;;;;4.70;1.00;;;;;;;14.99;72.42;95808.88;5039524;28;20960;-73
2021/05/21 08:33:39;;;;;;;4.82;1.00;;;;;;;15.06;74.01;95791.06;5038895;28;20197;-73
2021/05/21 08:36:07;;;;;;;4.25;1.02;;;;;;;15.07;71.74;95801.50;5038025;28;20211;-73
2021/05/21 08:38:33;;;;;;;1.60;1.10;;;;;;;15.25;73.59;95793.63;5038906;28;20261;-73
2021/05/21 08:41:00;;;;;;;1.20;1.10;;;;;;;15.25;71.18;95798.94;5037214;28;20225;-73
2021/05/21 08:43:30;;;;;;;2.88;1.17;;;;;;;15.11;70.84;95797.38;5039251;28;20218;-73
2021/05/21 08:45:57;;;;;;;2.85;1.00;;;;;;;15.00;72.82;95798.06;5038117;28;20240;-74
2021/05/21 08:48:23;;;;;;;2.22;1.20;;;;;;;15.05;72.25;95784.16;5038052;28;20206;-73
2021/05/21 08:50:49;;;;;;;2.05;1.05;;;;;;;15.20;73.83;95780.16;5036898;28;20219;-73
2021/05/21 08:53:15;;;;;;;2.17;1.20;;;;;;;15.21;71.90;95783.66;5036218;28;20600;-73
2021/05/21 08:55:41;;;;;;;3.88;1.00;;;;;;;15.34;72.36;95781.72;5038849;28;20880;-73
2021/05/21 08:58:11;;;;;;;3.00;0.90;;;;;;;15.34;71.10;95779.06;5038449;28;20251;-74
2021/05/21 09:00:37;;;;;;;4.60;1.30;;;;;;;15.43;74.18;95769.78;5037752;28;20198;-73
2021/05/21 09:03:21;;;;;;;4.75;1.00;;;;;;;15.38;70.71;95775.75;5039024;28;20201;-73
2021/05/21 09:06:18;;;;;;;1.95;0.98;;;;;;;15.22;71.57;95769.34;5036516;28;20201;-73
2021/05/21 09:08:47;;;;;;;2.15;0.98;;;;;;;15.18;75.68;95768.94;5036868;28;20591;-73
2021/05/21 09:11:31;;;;;;;4.85;0.95;;;;;;;14.98;77.31;95783.38;5037773;28;20231;-73
2021/05/21 09:13:59;;;;;;;2.08;1.10;;;;;;;14.80;82.13;95784.13;5037192;28;20197;-73
2021/05/21 09:16:27;;;;;;;2.97;0.90;;;;;;;14.80;82.11;95792.06;5036145;28;20205;-73
2021/05/21 09:19:09;;;;;;;1.90;1.17;;;;;;;14.76;81.50;95796.16;5037567;28;20225;-73
2021/05/21 09:21:56;;;;;;;1.08;0.80;;;;;;;14.77;82.69;95811.06;5035628;28;20707;-73
2021/05/21 09:24:24;;;;;;;1.10;0.73;;;;;;;14.64;82.27;95812.97;5038182;28;20201;-73
2021/05/21 09:26:52;;;;;;;2.75;0.90;;;;;;;14.59;83.63;95814.63;5037072;28;20205;-73
2021/05/21 09:29:34;;;;;;;2.20;1.00;;;;;;;14.45;86.30;95815.72;5037673;28;20201;-74
2021/05/21 09:32:01;;;;;;;5.75;1.10;;;;;;;14.38;86.89;95817.56;5038417;28;20221;-74
2021/05/21 09:34:32;;;;;;;3.70;0.80;;;;;;;14.16;86.45;95816.22;5038309;28;20201;-74
2021/05/21 09:36:59;;;;;;;2.83;1.00;;;;;;;14.11;87.90;95829.28;5036664;28;20675;-74
2021/05/21 09:39:25;;;;;;;3.40;1.30;;;;;;;14.03;92.91;95834.78;5037651;28;20291;-74
2021/05/21 09:41:53;;;;;;;1.80;0.90;;;;;;;13.98;91.65;95834.59;5038496;28;20224;-74
2021/05/21 09:44:20;;;;;;;3.55;1.48;;;;;;;13.83;92.36;95834.00;5037708;28;20204;-73
2021/05/21 09:46:48;;;;;;;3.72;1.05;;;;;;;13.77;91.75;95837.50;5036888;28;20216;-74
2021/05/21 09:49:33;;;;;;;2.15;1.10;;;;;;;13.61;93.45;95837.91;5038039;28;20247;-74
2021/05/21 09:52:00;;;;;;;0.68;0.68;;;;;;;13.57;93.55;95852.56;5035298;28;20227;-73
2021/05/21 09:54:27;;;;;;;4.47;1.00;;;;;;;13.53;92.06;95856.66;5038072;28;20212;-73
2021/05/21 09:57:04;;;;;;;5.57;1.00;;;;;;;13.44;94.45;95864.97;5037814;28;20610;-74
2021/05/21 09:59:38;;;;;;;1.80;1.00;;;;;;;13.44;96.17;95871.09;5037942;28;20207;-73
2021/05/21 10:02:21;;;;;;;4.10;1.33;;;;;;;13.42;94.95;95870.47;5041051;28;20831;-74
2021/05/21 10:04:48;;;;;;;3.00;1.50;;;;;;;13.26;97.66;95878.00;5042804;28;20201;-73
2021/05/21 10:07:15;;;;;;;2.67;1.02;;;;;;;13.19;97.51;95871.09;5040883;28;20679;-73
2021/05/21 10:09:41;;;;;;;3.25;1.00;;;;;;;13.00;100.00;95893.03;5040795;28;20671;-73
2021/05/21 10:12:09;;;;;;;2.15;0.90;;;;;;;12.86;100.00;95871.00;5041976;28;20733;-73
2021/05/21 10:14:35;;;;;;;3.55;1.88;;;;;;;12.95;100.00;95863.72;5041575;28;20205;-73
2021/05/21 10:17:03;;;;;;;3.80;1.40;;;;;;;12.89;100.00;95875.91;5040550;28;20201;-73
2021/05/21 10:19:29;;;;;;;2.33;1.15;;;;;;;12.93;100.00;95866.56;5041964;28;20220;-74
2021/05/21 10:21:58;;;;;;;4.22;1.20;;;;;;;12.85;100.00;95876.47;5041215;28;20243;-73
2021/05/21 10:24:32;;;;;;;1.88;1.20;;;;;;;12.94;100.00;95875.28;5040067;28;20201;-73
2021/05/21 10:27:01;;;;;;;1.98;1.40;;;;;;;12.92;100.00;95874.69;5040466;28;20208;-73
2021/05/21 10:29:31;;;;;;;1.45;0.93;;;;;;;12.86;100.00;95878.94;5041316;28;20203;-73
2021/05/21 10:32:10;;;;;;;2.50;1.33;;;;;;;12.87;100.00;95887.69;5041882;28;20227;-73
2021/05/21 10:34:41;;;;;;;4.82;1.50;;;;;;;12.89;100.00;95890.94;5041398;28;20255;-73
2021/05/21 10:37:24;;;;;;;4.10;1.60;;;;;;;12.84;100.00;95899.47;5041472;28;20209;-73
2021/05/21 10:40:01;;;;;;;4.10;1.40;;;;;;;12.80;100.00;95890.28;5041396;28;20205;-73
2021/05/21 10:42:28;;;;;;;4.35;1.65;;;;;;;12.75;100.00;95904.31;5041319;28;20270;-73
2021/05/21 10:45:06;;;;;;;3.50;1.67;;;;;;;12.63;100.00;95901.41;5040387;28;20304;-73
2021/05/21 10:47:37;;;;;;;2.75;1.05;;;;;;;12.66;100.00;95900.19;5040415;28;20197;-73
2021/05/21 10:50:21;;;;;;;3.87;1.50;;;;;;;12.55;100.00;95903.38;5041601;28;20209;-73
2021/05/21 10:52:57;;;;;;;2.03;1.33;;;;;;;12.50;100.00;95901.34;5037880;28;20232;-73
2021/05/21 10:55:44;;;;;;;7.43;1.65;;;;;;;12.61;100.00;95898.13;5041317;28;20210;-73
2021/05/21 10:58:19;;;;;;;4.88;1.30;;;;;;;12.63;100.00;95901.41;5041124;28;20840;-74
2021/05/21 11:01:11;;;;;;;4.53;1.85;;;;;;;12.67;100.00;95885.97;5041071;28;20200;-74
2021/05/21 11:04:01;;;;;;;3.63;1.90;;;;;;;12.59;100.00;95886.97;5026988;28;20201;-74
2021/05/21 11:06:29;;;;;;;1.60;1.30;;;;;;;12.50;100.00;95887.31;5039592;28;20209;-74
2021/05/21 11:08:59;;;;;;;2.20;1.43;;;;;;;12.40;100.00;95885.03;5041176;28;20572;-74
2021/05/21 11:11:43;;;;;;;3.80;1.70;;;;;;;12.38;100.00;95881.75;5039218;28;20232;-73
2021/05/21 11:14:19;;;;;;;3.13;1.35;;;;;;;12.45;100.00;95872.06;5041475;28;20259;-73
2021/05/21 11:16:52;;;;;;;5.15;1.55;;;;;;;12.48;100.00;95876.13;5040408;28;20205;-73
2021/05/21 11:19:23;;;;;;;4.03;1.40;;;;;;;12.48;100.00;95887.50;5039843;28;20228;-74
2021/05/21 11:22:05;;;;;;;4.15;1.45;;;;;;;12.46;100.00;95888.72;5040355;28;20637;-74
2021/05/21 11:24:38;;;;;;;2.80;1.33;;;;;;;12.42;100.00;95888.31;5039869;28;20608;-74
2021/05/21 11:27:07;;;;;;;2.63;1.60;;;;;;;12.51;100.00;95887.13;5037282;28;20205;-74
2021/05/21 11:29:35;;;;;;;3.20;1.70;;;;;;;12.47;100.00;95882.44;5039134;28;20275;-74
2021/05/21 11:32:02;;;;;;;4.78;1.67;;;;;;;12.48;100.00;95887.50;5039786;28;20225;-74
2021/05/21 11:34:28;;;;;;;3.28;1.80;;;;;;;12.32;100.00;95882.56;5039719;28;20340;-74